createdAt,value
2022-10-16T00:01:44.567Z,100.00
2022-10-16T00:04:11.461Z,100.00
2022-10-16T00:06:38.871Z,100.00
2022-10-16T00:09:07.081Z,100.00
2022-10-16T00:11:40.531Z,100.00
2022-10-16T00:14:15.622Z,100.00
2022-10-16T00:16:43.043Z,100.00
2022-10-16T00:19:13.425Z,100.00
2022-10-16T00:21:40.438Z,100.00
2022-10-16T00:24:10.719Z,100.00
2022-10-16T00:26:39.777Z,100.00
2022-10-16T00:29:09.012Z,100.00
2022-10-16T00:31:36.500Z,100.00
2022-10-16T00:34:03.961Z,100.00
2022-10-16T00:36:31.652Z,100.00
2022-10-16T00:41:29.929Z,100.00
2022-10-16T00:44:23.767Z,100.00
2022-10-16T00:46:52.061Z,100.00
2022-10-16T00:49:22.219Z,100.00
2022-10-16T00:51:54.650Z,100.00
2022-10-16T00:54:33.185Z,100.00
2022-10-16T00:57:06.408Z,100.00
2022-10-16T00:59:43.346Z,100.00
2022-10-16T01:02:16.223Z,100.00
2022-10-16T01:04:51.184Z,100.00
2022-10-16T01:07:57.075Z,100.00
2022-10-16T01:10:45.186Z,100.00
2022-10-16T01:13:28.823Z,100.00
2022-10-16T01:16:14.583Z,100.00
2022-10-16T01:19:16.097Z,100.00
2022-10-16T01:21:53.204Z,100.00
2022-10-16T01:24:45.606Z,100.00
2022-10-16T01:27:31.854Z,100.00
2022-10-16T01:30:35.473Z,100.00
2022-10-16T01:33:18.119Z,100.00
2022-10-16T01:35:55.054Z,100.00
2022-10-16T01:38:38.981Z,100.00
2022-10-16T01:41:32.914Z,100.00
2022-10-16T01:44:21.673Z,100.00
2022-10-16T01:46:54.746Z,100.00
2022-10-16T01:49:30.704Z,100.00
2022-10-16T01:52:06.317Z,100.00
2022-10-16T01:54:38.980Z,100.00
2022-10-16T01:57:10.201Z,100.00
2022-10-16T01:59:48.070Z,100.00
2022-10-16T02:02:22.239Z,100.00
2022-10-16T02:04:55.946Z,100.00
2022-10-16T02:07:23.632Z,100.00
2022-10-16T02:09:50.522Z,100.00
2022-10-16T02:12:28.220Z,100.00
2022-10-16T02:14:55.373Z,100.00
2022-10-16T02:17:22.715Z,100.00
2022-10-16T02:19:55.829Z,100.00
2022-10-16T02:22:41.347Z,100.00
2022-10-16T02:25:42.781Z,100.00
2022-10-16T02:28:45.994Z,100.00
2022-10-16T02:31:23.949Z,100.00
2022-10-16T02:33:55.221Z,100.00
2022-10-16T02:36:23.364Z,100.00
2022-10-16T02:38:55.259Z,100.00
2022-10-16T02:41:24.734Z,100.00
2022-10-16T02:43:51.385Z,100.00
2022-10-16T02:46:19.880Z,100.00
2022-10-16T02:48:46.496Z,100.00
2022-10-16T02:51:13.230Z,100.00
2022-10-16T02:53:39.887Z,100.00
2022-10-16T02:56:07.226Z,100.00
2022-10-16T02:58:33.966Z,100.00
2022-10-16T03:01:00.696Z,100.00
2022-10-16T03:03:27.401Z,100.00
2022-10-16T03:05:54.117Z,100.00
2022-10-16T03:08:24.477Z,100.00
2022-10-16T03:10:52.635Z,100.00
2022-10-16T03:13:21.389Z,100.00
2022-10-16T03:15:48.772Z,100.00
2022-10-16T03:18:16.078Z,100.00
2022-10-16T03:20:44.695Z,100.00
2022-10-16T03:23:11.536Z,100.00
2022-10-16T03:25:38.731Z,100.00
2022-10-16T03:28:05.582Z,100.00
2022-10-16T03:30:32.631Z,100.00
2022-10-16T03:32:59.406Z,100.00
2022-10-16T03:35:26.317Z,100.00
2022-10-16T03:37:58.814Z,100.00
2022-10-16T03:40:25.504Z,100.00
2022-10-16T03:42:58.291Z,100.00
2022-10-16T03:45:26.536Z,100.00
2022-10-16T03:47:56.055Z,100.00
2022-10-16T03:50:22.927Z,100.00
2022-10-16T03:52:49.599Z,100.00
2022-10-16T03:55:16.229Z,100.00
2022-10-16T03:57:45.943Z,100.00
2022-10-16T04:00:14.142Z,100.00
2022-10-16T04:02:41.291Z,100.00
2022-10-16T04:05:08.755Z,100.00
2022-10-16T04:07:40.757Z,100.00
2022-10-16T04:10:08.160Z,100.00
2022-10-16T04:12:34.888Z,100.00
2022-10-16T04:15:05.079Z,100.00
2022-10-16T04:17:31.809Z,100.00
2022-10-16T04:19:58.374Z,100.00
2022-10-16T04:22:25.025Z,100.00
2022-10-16T04:24:53.206Z,100.00
2022-10-16T04:27:19.956Z,100.00
2022-10-16T04:29:46.694Z,100.00
2022-10-16T04:32:13.343Z,100.00
2022-10-16T04:34:41.096Z,100.00
2022-10-16T04:37:08.339Z,100.00
2022-10-16T04:39:35.200Z,100.00
2022-10-16T04:42:04.545Z,100.00
2022-10-16T04:44:31.207Z,100.00
2022-10-16T04:46:57.931Z,100.00
2022-10-16T04:49:24.737Z,100.00
2022-10-16T04:51:51.767Z,100.00
2022-10-16T04:54:18.759Z,100.00
2022-10-16T04:56:48.982Z,100.00
2022-10-16T04:59:16.235Z,100.00
2022-10-16T05:01:49.019Z,100.00
2022-10-16T05:04:18.303Z,100.00
2022-10-16T05:06:45.053Z,100.00
2022-10-16T05:09:23.872Z,100.00
2022-10-16T05:11:50.673Z,100.00
2022-10-16T05:14:20.411Z,100.00
2022-10-16T05:16:48.982Z,100.00
2022-10-16T05:19:26.795Z,100.00
2022-10-16T05:21:54.858Z,100.00
2022-10-16T05:24:21.504Z,100.00
2022-10-16T05:26:48.148Z,100.00
2022-10-16T05:29:15.549Z,100.00
2022-10-16T05:31:44.327Z,100.00
2022-10-16T05:34:11.178Z,100.00
2022-10-16T05:36:38.067Z,100.00
2022-10-16T05:39:04.712Z,100.00
2022-10-16T05:41:33.164Z,100.00
2022-10-16T05:44:00.087Z,100.00
2022-10-16T05:46:26.712Z,100.00
2022-10-16T05:48:56.532Z,100.00
2022-10-16T05:51:23.227Z,100.00
2022-10-16T05:53:50.016Z,100.00
2022-10-16T05:56:16.692Z,100.00
2022-10-16T05:58:45.223Z,100.00
2022-10-16T06:01:18.455Z,100.00
2022-10-16T06:03:46.045Z,100.00
2022-10-16T06:06:23.900Z,100.00
2022-10-16T06:08:53.138Z,100.00
2022-10-16T06:11:29.616Z,100.00
2022-10-16T06:14:07.772Z,100.00
2022-10-16T06:16:39.516Z,100.00
2022-10-16T06:19:08.839Z,100.00
2022-10-16T06:21:40.443Z,100.00
2022-10-16T06:24:11.161Z,100.00
2022-10-16T06:26:40.960Z,100.00
2022-10-16T06:29:10.481Z,100.00
2022-10-16T06:31:38.924Z,100.00
2022-10-16T06:34:10.113Z,100.00
2022-10-16T06:36:37.115Z,100.00
2022-10-16T06:39:05.660Z,100.00
2022-10-16T06:41:32.644Z,100.00
2022-10-16T06:43:59.430Z,100.00
2022-10-16T06:46:27.496Z,100.00
2022-10-16T06:48:54.858Z,100.00
2022-10-16T06:51:26.182Z,100.00
2022-10-16T06:54:05.279Z,100.00
2022-10-16T06:56:35.197Z,100.00
2022-10-16T06:59:03.784Z,100.00
2022-10-16T07:01:31.272Z,100.00
2022-10-16T07:04:00.843Z,100.00
2022-10-16T07:06:33.129Z,100.00
2022-10-16T07:09:06.624Z,100.00
2022-10-16T07:11:34.616Z,100.00
2022-10-16T07:14:01.470Z,100.00
2022-10-16T07:16:32.599Z,100.00
2022-10-16T07:19:02.946Z,100.00
2022-10-16T07:21:36.961Z,100.00
2022-10-16T07:24:11.958Z,100.00
2022-10-16T07:26:40.366Z,100.00
2022-10-16T07:29:22.104Z,100.00
2022-10-16T07:31:50.405Z,100.00
2022-10-16T07:34:22.570Z,100.00
2022-10-16T07:36:51.478Z,100.00
2022-10-16T07:39:21.425Z,100.00
2022-10-16T07:41:48.131Z,100.00
2022-10-16T07:44:16.714Z,100.00
2022-10-16T07:46:43.573Z,100.00
2022-10-16T07:49:10.315Z,100.00
2022-10-16T07:51:37.148Z,100.00
2022-10-16T07:54:14.496Z,100.00
2022-10-16T07:57:04.360Z,100.00
2022-10-16T07:59:33.608Z,100.00
2022-10-16T08:02:00.435Z,100.00
2022-10-16T08:04:27.094Z,100.00
2022-10-16T08:06:55.263Z,100.00
2022-10-16T08:09:22.058Z,100.00
2022-10-16T08:11:48.832Z,100.00
2022-10-16T08:14:15.473Z,100.00
2022-10-16T08:16:42.160Z,100.00
2022-10-16T08:19:09.058Z,100.00
2022-10-16T08:21:35.847Z,100.00
2022-10-16T08:24:21.022Z,100.00
2022-10-16T08:26:50.263Z,100.00
2022-10-16T08:29:16.947Z,98.53
2022-10-16T08:31:46.264Z,100.00
2022-10-16T08:34:13.258Z,100.00
2022-10-16T08:36:40.015Z,100.00
2022-10-16T08:39:06.692Z,100.00
2022-10-16T08:42:28.805Z,100.00
2022-10-16T08:45:45.682Z,100.00
2022-10-16T08:48:47.313Z,100.00
2022-10-16T08:51:31.974Z,100.00
2022-10-16T08:54:31.259Z,100.00
2022-10-16T08:57:21.385Z,100.00
2022-10-16T08:59:52.466Z,100.00
2022-10-16T09:02:38.439Z,100.00
2022-10-16T09:05:55.879Z,100.00
2022-10-16T09:09:16.456Z,100.00
2022-10-16T09:12:28.796Z,99.69
2022-10-16T09:16:02.413Z,99.53
2022-10-16T09:19:23.835Z,100.00
2022-10-16T09:21:51.965Z,99.00
2022-10-16T09:24:29.381Z,99.91
2022-10-16T09:27:00.951Z,99.84
2022-10-16T09:29:27.809Z,98.51
2022-10-16T09:32:10.023Z,100.00
2022-10-16T09:34:47.301Z,99.66
2022-10-16T09:37:20.401Z,100.00
2022-10-16T09:39:54.803Z,100.00
2022-10-16T09:42:32.590Z,97.63
2022-10-16T09:44:59.956Z,97.00
2022-10-16T09:47:32.757Z,99.36
2022-10-16T09:50:36.642Z,98.23
2022-10-16T09:53:19.704Z,95.70
2022-10-16T09:55:55.497Z,98.00
2022-10-16T09:58:26.019Z,100.00
2022-10-16T10:00:56.044Z,100.00
2022-10-16T10:03:45.982Z,100.00
2022-10-16T10:06:48.044Z,100.00
2022-10-16T10:09:32.456Z,100.00
2022-10-16T10:12:04.865Z,100.00
2022-10-16T10:14:48.661Z,100.00
2022-10-16T10:17:30.669Z,100.00
2022-10-16T10:20:28.413Z,100.00
2022-10-16T10:22:57.205Z,100.00
2022-10-16T10:25:45.865Z,100.00
2022-10-16T10:28:30.660Z,100.00
2022-10-16T10:31:36.289Z,100.00
2022-10-16T10:35:07.072Z,100.00
2022-10-16T10:38:10.435Z,100.00
2022-10-16T10:41:16.770Z,100.00
2022-10-16T10:44:10.622Z,100.00
2022-10-16T10:47:03.593Z,100.00
2022-10-16T10:49:33.147Z,100.00
2022-10-16T10:52:36.032Z,100.00
2022-10-16T10:55:29.387Z,100.00
2022-10-16T10:58:26.453Z,100.00
2022-10-16T11:01:14.096Z,100.00
2022-10-16T11:04:08.049Z,100.00
2022-10-16T11:09:19.340Z,100.00
2022-10-16T11:12:09.038Z,100.00
2022-10-16T11:15:06.526Z,100.00
2022-10-16T11:17:46.775Z,100.00
2022-10-16T11:20:26.290Z,100.00
2022-10-16T11:23:27.989Z,100.00
2022-10-16T11:26:03.289Z,100.00
2022-10-16T11:28:51.449Z,100.00
2022-10-16T11:32:07.916Z,100.00
2022-10-16T11:34:59.932Z,100.00
2022-10-16T11:37:48.260Z,99.86
2022-10-16T11:40:36.250Z,100.00
2022-10-16T11:43:26.038Z,100.00
2022-10-16T11:46:11.892Z,100.00
2022-10-16T11:48:55.028Z,100.00
2022-10-16T11:51:39.298Z,100.00
2022-10-16T11:54:42.669Z,100.00
2022-10-16T11:57:25.665Z,100.00
2022-10-16T12:00:06.514Z,100.00
2022-10-16T12:03:13.553Z,100.00
2022-10-16T12:06:33.455Z,100.00
2022-10-16T12:09:05.390Z,100.00
2022-10-16T12:11:40.226Z,100.00
2022-10-16T12:14:13.105Z,100.00
2022-10-16T12:16:59.348Z,98.82
2022-10-16T12:19:30.713Z,96.14
2022-10-16T12:22:03.158Z,95.70
2022-10-16T12:24:35.529Z,96.29
2022-10-16T12:27:04.744Z,92.69
2022-10-16T12:29:36.967Z,91.80
2022-10-16T12:32:46.845Z,91.46
2022-10-16T12:35:37.772Z,91.85
2022-10-16T12:38:53.026Z,91.93
2022-10-16T12:41:33.130Z,90.77
2022-10-16T12:44:04.449Z,90.02
2022-10-16T12:46:31.127Z,90.63
2022-10-16T12:49:38.182Z,93.12
2022-10-16T12:52:37.816Z,93.25
2022-10-16T12:55:17.449Z,91.91
2022-10-16T12:58:53.063Z,92.46
2022-10-16T13:02:06.339Z,93.04
2022-10-16T13:05:52.005Z,92.28
2022-10-16T13:09:11.016Z,91.03
2022-10-16T13:12:09.526Z,93.49
2022-10-16T13:15:32.863Z,93.90
2022-10-16T13:19:06.561Z,96.45
2022-10-16T13:22:35.861Z,96.08
2022-10-16T13:26:09.824Z,96.58
2022-10-16T13:28:40.792Z,96.05
2022-10-16T13:31:53.232Z,95.87
2022-10-16T13:34:51.616Z,91.73
2022-10-16T13:37:26.645Z,90.98
2022-10-16T13:40:29.216Z,91.54
2022-10-16T13:43:03.840Z,90.85
2022-10-16T13:45:32.512Z,88.54
2022-10-16T13:48:13.509Z,87.95
2022-10-16T13:50:40.249Z,88.66
2022-10-16T13:53:27.963Z,88.33
2022-10-16T13:55:54.767Z,88.19
2022-10-16T13:58:24.167Z,87.02
2022-10-16T14:01:17.115Z,88.74
2022-10-16T14:03:53.905Z,86.61
2022-10-16T14:06:23.690Z,90.03
2022-10-16T14:09:11.229Z,90.30
2022-10-16T14:11:59.128Z,88.13
2022-10-16T14:23:51.837Z,90.57
2022-10-16T14:26:26.685Z,87.55
2022-10-16T14:29:19.894Z,87.68
2022-10-16T14:32:26.092Z,90.45
2022-10-16T14:34:56.503Z,90.22
2022-10-16T14:37:31.348Z,90.46
2022-10-16T14:39:58.589Z,92.49
2022-10-16T14:42:26.938Z,94.24
2022-10-16T14:44:57.993Z,93.66
2022-10-16T14:47:28.340Z,93.39
2022-10-16T14:50:01.429Z,93.39
2022-10-16T14:52:28.270Z,93.81
2022-10-16T14:54:57.484Z,93.85
2022-10-16T14:57:33.824Z,91.59
2022-10-16T15:00:01.084Z,91.32
2022-10-16T15:02:40.427Z,91.57
2022-10-16T15:05:23.292Z,93.26
2022-10-16T15:07:57.512Z,95.97
2022-10-16T15:10:32.740Z,96.96
2022-10-16T15:13:02.780Z,100.00
2022-10-16T15:15:43.216Z,100.00
2022-10-16T15:18:10.078Z,100.00
2022-10-16T15:20:40.150Z,100.00
2022-10-16T15:23:36.475Z,100.00
2022-10-16T15:26:09.464Z,100.00
2022-10-16T15:28:37.139Z,100.00
2022-10-16T15:31:06.568Z,100.00
2022-10-16T15:33:38.871Z,100.00
2022-10-16T15:36:08.116Z,100.00
2022-10-16T15:38:35.415Z,100.00
2022-10-16T15:41:02.366Z,100.00
2022-10-16T15:43:35.337Z,100.00
2022-10-16T15:46:12.763Z,100.00
2022-10-16T15:48:40.963Z,100.00
2022-10-16T15:51:10.880Z,100.00
2022-10-16T15:53:37.706Z,100.00
2022-10-16T15:56:08.250Z,100.00
2022-10-16T15:58:36.016Z,100.00
2022-10-16T16:01:05.087Z,100.00
2022-10-16T16:03:35.997Z,100.00
2022-10-16T16:06:24.710Z,100.00
2022-10-16T16:08:55.489Z,100.00
2022-10-16T16:11:26.830Z,100.00
2022-10-16T16:13:55.633Z,100.00
2022-10-16T16:16:25.942Z,100.00
2022-10-16T16:32:27.700Z,100.00
2022-10-16T17:10:36.921Z,100.00
2022-10-16T17:26:51.720Z,100.00
2022-10-16T17:29:25.349Z,100.00
2022-10-16T17:31:55.171Z,100.00
2022-10-16T17:34:29.170Z,100.00
2022-10-16T17:36:55.861Z,100.00
2022-10-16T17:39:27.860Z,100.00
2022-10-16T17:41:55.729Z,100.00
2022-10-16T17:44:22.562Z,100.00
2022-10-16T17:46:56.331Z,100.00
2022-10-16T17:51:54.018Z,100.00
2022-10-16T17:54:21.650Z,100.00
2022-10-16T17:56:51.510Z,100.00
2022-10-16T17:59:41.446Z,100.00
2022-10-16T18:04:53.280Z,100.00
2022-10-16T18:07:20.129Z,100.00
2022-10-16T18:10:10.804Z,100.00
2022-10-16T19:23:11.690Z,100.00
2022-10-16T20:47:18.733Z,100.00
2022-10-16T20:52:34.163Z,100.00
2022-10-16T20:55:02.282Z,100.00
2022-10-16T20:57:29.398Z,100.00
2022-10-16T20:59:56.512Z,100.00
2022-10-16T21:02:27.295Z,100.00
2022-10-16T21:04:56.380Z,100.00
2022-10-16T21:07:23.083Z,100.00
2022-10-16T21:09:49.971Z,100.00
2022-10-16T21:12:16.592Z,100.00
2022-10-16T21:15:02.483Z,100.00
2022-10-16T21:17:32.403Z,100.00
2022-10-16T21:19:59.052Z,100.00
2022-10-16T21:22:31.721Z,100.00
2022-10-16T21:24:58.381Z,100.00
2022-10-16T21:27:25.402Z,100.00
2022-10-16T21:29:56.857Z,100.00
2022-10-16T21:32:23.653Z,100.00
2022-10-16T21:34:50.404Z,100.00
2022-10-16T21:37:17.061Z,100.00
2022-10-16T21:39:43.843Z,100.00
2022-10-16T21:42:10.575Z,100.00
2022-10-16T21:44:38.826Z,100.00
2022-10-16T21:47:05.671Z,100.00
2022-10-16T21:49:32.391Z,100.00
2022-10-16T21:51:59.074Z,100.00
2022-10-16T21:54:31.840Z,100.00
2022-10-16T21:56:58.637Z,100.00
2022-10-16T21:59:25.429Z,100.00
2022-10-16T22:01:55.647Z,100.00
2022-10-16T22:04:25.065Z,100.00
2022-10-16T22:06:51.802Z,100.00
2022-10-16T22:09:18.502Z,100.00
2022-10-16T22:11:50.266Z,100.00
2022-10-16T22:14:21.815Z,100.00
2022-10-16T22:16:50.292Z,100.00
2022-10-16T22:19:25.178Z,100.00
2022-10-16T22:21:57.192Z,100.00
2022-10-16T22:24:24.844Z,100.00
2022-10-16T22:26:51.623Z,100.00
2022-10-16T22:29:18.743Z,100.00
2022-10-16T22:31:53.232Z,100.00
2022-10-16T22:34:23.626Z,100.00
2022-10-16T22:36:53.144Z,100.00
2022-10-16T22:39:19.825Z,100.00
2022-10-16T22:41:46.579Z,100.00
2022-10-16T22:44:13.950Z,100.00
2022-10-16T22:46:45.953Z,100.00
2022-10-16T22:49:17.452Z,100.00
2022-10-16T22:51:44.678Z,100.00
2022-10-16T22:54:13.661Z,100.00
2022-10-16T22:56:40.678Z,100.00
2022-10-16T22:59:09.862Z,100.00
2022-10-16T23:01:43.968Z,100.00
2022-10-16T23:04:10.602Z,100.00
2022-10-16T23:06:39.880Z,100.00
2022-10-16T23:09:06.968Z,100.00
2022-10-16T23:11:33.816Z,100.00
2022-10-16T23:14:00.662Z,100.00
2022-10-16T23:16:27.410Z,100.00
2022-10-16T23:18:59.003Z,100.00
2022-10-16T23:21:30.290Z,100.00
2022-10-16T23:23:57.046Z,100.00
2022-10-16T23:26:27.211Z,100.00
2022-10-16T23:28:58.454Z,100.00
2022-10-16T23:31:26.697Z,100.00
2022-10-16T23:33:59.776Z,100.00
2022-10-16T23:36:28.830Z,100.00
2022-10-16T23:38:56.017Z,100.00
2022-10-16T23:41:23.015Z,100.00
2022-10-16T23:43:51.357Z,100.00
2022-10-16T23:46:18.545Z,100.00
2022-10-16T23:48:45.644Z,100.00
2022-10-16T23:51:16.196Z,100.00
2022-10-16T23:53:44.093Z,100.00
2022-10-16T23:56:14.678Z,100.00
2022-10-16T23:58:42.287Z,100.00
